sensor_id;sensor_type;location;lat;lon;timestamp;pressure;altitude;pressure_sealevel;temperature;humidity
37648;BME280;23490;53.656;10.076;2023-11-25T00:01:06;99921.94;;;-145.95;100.00
37648;BME280;23490;53.656;10.076;2023-11-25T00:03:32;99967.41;;;-145.95;100.00
37648;BME280;23490;53.656;10.076;2023-11-25T00:05:57;99946.75;;;-145.95;100.00
37648;BME280;23490;53.656;10.076;2023-11-25T00:08:22;99938.47;;;-145.95;100.00
37648;BME280;23490;53.656;10.076;2023-11-25T00:10:48;99955.00;;;-145.95;100.00
37648;BME280;23490;53.656;10.076;2023-11-25T00:13:15;99979.78;;;-145.95;100.00
37648;BME280;23490;53.656;10.076;2023-11-25T00:15:40;99946.75;;;-145.95;100.00
37648;BME280;23490;53.656;10.076;2023-11-25T00:18:06;99952.94;;;-145.95;100.00
37648;BME280;23490;53.656;10.076;2023-11-25T00:20:32;99992.19;;;-145.95;100.00
37648;BME280;23490;53.656;10.076;2023-11-25T00:23:01;99959.13;;;-145.95;100.00
37648;BME280;23490;53.656;10.076;2023-11-25T00:25:27;99917.81;;;-145.95;100.00
37648;BME280;23490;53.656;10.076;2023-11-25T00:27:52;99934.34;;;-145.95;100.00
37648;BME280;23490;53.656;10.076;2023-11-25T00:30:21;99942.59;;;-145.95;100.00
37648;BME280;23490;53.656;10.076;2023-11-25T00:32:46;99979.78;;;-145.95;100.00
37648;BME280;23490;53.656;10.076;2023-11-25T00:35:12;99907.50;;;-145.95;100.00
37648;BME280;23490;53.656;10.076;2023-11-25T00:37:37;99975.66;;;-145.95;100.00
37648;BME280;23490;53.656;10.076;2023-11-25T00:40:06;99977.72;;;-145.95;100.00
37648;BME280;23490;53.656;10.076;2023-11-25T00:42:36;99983.91;;;-145.95;100.00
37648;BME280;23490;53.656;10.076;2023-11-25T00:45:02;100002.50;;;-145.95;100.00
37648;BME280;23490;53.656;10.076;2023-11-25T00:47:28;99998.38;;;-145.95;100.00
37648;BME280;23490;53.656;10.076;2023-11-25T00:49:56;99971.53;;;-145.95;100.00
37648;BME280;23490;53.656;10.076;2023-11-25T00:52:21;99981.84;;;-145.95;100.00
37648;BME280;23490;53.656;10.076;2023-11-25T00:54:47;99983.91;;;-145.95;100.00
37648;BME280;23490;53.656;10.076;2023-11-25T00:57:13;99948.81;;;-145.95;100.00
37648;BME280;23490;53.656;10.076;2023-11-25T00:59:38;100006.63;;;-145.95;100.00
37648;BME280;23490;53.656;10.076;2023-11-25T01:02:03;99992.19;;;-145.95;100.00
37648;BME280;23490;53.656;10.076;2023-11-25T01:04:28;99948.81;;;-145.95;100.00
37648;BME280;23490;53.656;10.076;2023-11-25T01:06:54;99971.53;;;-145.95;100.00
37648;BME280;23490;53.656;10.076;2023-11-25T01:09:20;99973.59;;;-145.95;100.00
37648;BME280;23490;53.656;10.076;2023-11-25T01:11:46;99921.94;;;-145.95;100.00
37648;BME280;23490;53.656;10.076;2023-11-25T01:14:11;99971.53;;;-145.95;100.00
37648;BME280;23490;53.656;10.076;2023-11-25T01:16:38;99934.34;;;-145.95;100.00
37648;BME280;23490;53.656;10.076;2023-11-25T01:19:04;99979.78;;;-145.95;100.00
37648;BME280;23490;53.656;10.076;2023-11-25T01:21:29;99975.66;;;-145.95;100.00
37648;BME280;23490;53.656;10.076;2023-11-25T01:23:55;99979.78;;;-145.95;100.00
37648;BME280;23490;53.656;10.076;2023-11-25T01:26:20;99942.59;;;-145.95;100.00
37648;BME280;23490;53.656;10.076;2023-11-25T01:28:47;100000.44;;;-145.95;100.00
37648;BME280;23490;53.656;10.076;2023-11-25T01:31:13;100000.44;;;-145.95;100.00
37648;BME280;23490;53.656;10.076;2023-11-25T01:33:39;100004.56;;;-145.95;100.00
37648;BME280;23490;53.656;10.076;2023-11-25T01:36:06;99979.78;;;-145.95;100.00
37648;BME280;23490;53.656;10.076;2023-11-25T01:38:35;99994.25;;;-145.95;100.00
37648;BME280;23490;53.656;10.076;2023-11-25T01:41:00;100016.97;;;-145.95;100.00
37648;BME280;23490;53.656;10.076;2023-11-25T01:43:27;100037.63;;;-145.95;100.00
37648;BME280;23490;53.656;10.076;2023-11-25T01:45:54;100000.44;;;-145.95;100.00
37648;BME280;23490;53.656;10.076;2023-11-25T01:48:22;100012.84;;;-145.95;100.00
37648;BME280;23490;53.656;10.076;2023-11-25T01:50:48;100025.22;;;-145.95;100.00
37648;BME280;23490;53.656;10.076;2023-11-25T01:53:14;99979.78;;;-145.95;100.00
37648;BME280;23490;53.656;10.076;2023-11-25T01:55:43;99990.13;;;-145.95;100.00
37648;BME280;23490;53.656;10.076;2023-11-25T01:58:09;100012.84;;;-145.95;100.00
37648;BME280;23490;53.656;10.076;2023-11-25T02:00:35;100037.63;;;-145.95;100.00
37648;BME280;23490;53.656;10.076;2023-11-25T02:03:03;100014.91;;;-145.95;100.00
37648;BME280;23490;53.656;10.076;2023-11-25T02:05:31;99996.31;;;-145.95;100.00
37648;BME280;23490;53.656;10.076;2023-11-25T02:07:56;99983.91;;;-145.95;100.00
37648;BME280;23490;53.656;10.076;2023-11-25T02:10:22;100029.38;;;-145.95;100.00
37648;BME280;23490;53.656;10.076;2023-11-25T02:12:47;99955.00;;;-145.95;100.00
37648;BME280;23490;53.656;10.076;2023-11-25T02:15:13;99963.25;;;-145.95;100.00
37648;BME280;23490;53.656;10.076;2023-11-25T02:17:41;99971.53;;;-145.95;100.00
37648;BME280;23490;53.656;10.076;2023-11-25T02:20:07;99983.91;;;-145.95;100.00
37648;BME280;23490;53.656;10.076;2023-11-25T02:22:35;100004.56;;;-145.95;100.00
37648;BME280;23490;53.656;10.076;2023-11-25T02:25:03;99955.00;;;-145.95;100.00
37648;BME280;23490;53.656;10.076;2023-11-25T02:27:28;100016.97;;;-145.95;100.00
37648;BME280;23490;53.656;10.076;2023-11-25T02:29:53;99967.41;;;-145.95;100.00
37648;BME280;23490;53.656;10.076;2023-11-25T02:32:19;99981.84;;;-145.95;100.00
37648;BME280;23490;53.656;10.076;2023-11-25T02:34:44;99992.19;;;-145.95;100.00
37648;BME280;23490;53.656;10.076;2023-11-25T02:37:11;100006.63;;;-145.95;100.00
37648;BME280;23490;53.656;10.076;2023-11-25T02:39:38;99973.59;;;-145.95;100.00
37648;BME280;23490;53.656;10.076;2023-11-25T02:42:04;99967.41;;;-145.95;100.00
37648;BME280;23490;53.656;10.076;2023-11-25T02:44:31;99979.78;;;-145.95;100.00
37648;BME280;23490;53.656;10.076;2023-11-25T02:46:57;99996.31;;;-145.95;100.00
37648;BME280;23490;53.656;10.076;2023-11-25T02:49:22;100012.84;;;-145.95;100.00
37648;BME280;23490;53.656;10.076;2023-11-25T02:51:48;100000.44;;;-145.95;100.00
37648;BME280;23490;53.656;10.076;2023-11-25T02:54:14;99963.25;;;-145.95;100.00
37648;BME280;23490;53.656;10.076;2023-11-25T02:56:40;99946.75;;;-145.95;100.00
37648;BME280;23490;53.656;10.076;2023-11-25T02:59:05;100008.72;;;-145.95;100.00
37648;BME280;23490;53.656;10.076;2023-11-25T03:01:31;99994.25;;;-145.95;100.00
37648;BME280;23490;53.656;10.076;2023-11-25T03:03:57;99971.53;;;-145.95;100.00
37648;BME280;23490;53.656;10.076;2023-11-25T03:06:27;99992.19;;;-145.95;100.00
37648;BME280;23490;53.656;10.076;2023-11-25T03:08:52;99967.41;;;-145.95;100.00
37648;BME280;23490;53.656;10.076;2023-11-25T03:11:20;100006.63;;;-145.95;100.00
37648;BME280;23490;53.656;10.076;2023-11-25T03:13:46;100016.97;;;-145.95;100.00
37648;BME280;23490;53.656;10.076;2023-11-25T03:16:12;99979.78;;;-145.95;100.00
37648;BME280;23490;53.656;10.076;2023-11-25T03:18:38;100006.63;;;-145.95;100.00
37648;BME280;23490;53.656;10.076;2023-11-25T03:21:03;100021.09;;;-145.95;100.00
37648;BME280;23490;53.656;10.076;2023-11-25T03:23:29;99988.06;;;-145.95;100.00
37648;BME280;23490;53.656;10.076;2023-11-25T03:25:54;100004.56;;;-145.95;100.00
37648;BME280;23490;53.656;10.076;2023-11-25T03:28:20;100004.56;;;-145.95;100.00
37648;BME280;23490;53.656;10.076;2023-11-25T03:30:47;99988.06;;;-145.95;100.00
37648;BME280;23490;53.656;10.076;2023-11-25T03:33:13;100012.84;;;-145.95;100.00
37648;BME280;23490;53.656;10.076;2023-11-25T03:35:39;100002.50;;;-145.95;100.00
37648;BME280;23490;53.656;10.076;2023-11-25T03:38:04;99996.31;;;-145.95;100.00
37648;BME280;23490;53.656;10.076;2023-11-25T03:40:30;100004.56;;;-145.95;100.00
37648;BME280;23490;53.656;10.076;2023-11-25T03:42:55;99979.78;;;-145.95;100.00
37648;BME280;23490;53.656;10.076;2023-11-25T03:45:21;100002.50;;;-145.95;100.00
37648;BME280;23490;53.656;10.076;2023-11-25T03:47:47;100004.56;;;-145.95;100.00
37648;BME280;23490;53.656;10.076;2023-11-25T03:50:12;99983.91;;;-145.95;100.00
37648;BME280;23490;53.656;10.076;2023-11-25T03:52:40;100012.84;;;-145.95;100.00
37648;BME280;23490;53.656;10.076;2023-11-25T03:55:07;100021.09;;;-145.95;100.00
37648;BME280;23490;53.656;10.076;2023-11-25T03:57:32;100004.56;;;-145.95;100.00
37648;BME280;23490;53.656;10.076;2023-11-25T03:59:58;99934.34;;;-145.95;100.00
37648;BME280;23490;53.656;10.076;2023-11-25T04:02:23;99996.31;;;-145.95;100.00
37648;BME280;23490;53.656;10.076;2023-11-25T04:04:49;99992.19;;;-145.95;100.00
37648;BME280;23490;53.656;10.076;2023-11-25T04:07:14;99930.22;;;-145.95;100.00
37648;BME280;23490;53.656;10.076;2023-11-25T04:09:40;99967.41;;;-145.95;100.00
37648;BME280;23490;53.656;10.076;2023-11-25T04:12:05;99944.69;;;-145.95;100.00
37648;BME280;23490;53.656;10.076;2023-11-25T04:14:31;99930.22;;;-145.95;100.00
37648;BME280;23490;53.656;10.076;2023-11-25T04:16:56;99944.69;;;-145.95;100.00
37648;BME280;23490;53.656;10.076;2023-11-25T04:19:22;99961.19;;;-145.95;100.00
37648;BME280;23490;53.656;10.076;2023-11-25T04:21:47;99957.06;;;-145.95;100.00
37648;BME280;23490;53.656;10.076;2023-11-25T04:24:15;99930.22;;;-145.95;100.00
37648;BME280;23490;53.656;10.076;2023-11-25T04:26:40;99971.53;;;-145.95;100.00
37648;BME280;23490;53.656;10.076;2023-11-25T04:29:07;99930.22;;;-145.95;100.00
37648;BME280;23490;53.656;10.076;2023-11-25T04:31:32;99969.47;;;-145.95;100.00
37648;BME280;23490;53.656;10.076;2023-11-25T04:33:58;99950.88;;;-145.95;100.00
37648;BME280;23490;53.656;10.076;2023-11-25T04:36:23;100000.44;;;-145.95;100.00
37648;BME280;23490;53.656;10.076;2023-11-25T04:38:52;99967.41;;;-145.95;100.00
37648;BME280;23490;53.656;10.076;2023-11-25T04:41:19;99963.25;;;-145.95;100.00
37648;BME280;23490;53.656;10.076;2023-11-25T04:43:44;99959.13;;;-145.95;100.00
37648;BME280;23490;53.656;10.076;2023-11-25T04:46:10;99924.03;;;-145.95;100.00
37648;BME280;23490;53.656;10.076;2023-11-25T04:48:36;99946.75;;;-145.95;100.00
37648;BME280;23490;53.656;10.076;2023-11-25T04:51:02;99963.25;;;-145.95;100.00
37648;BME280;23490;53.656;10.076;2023-11-25T04:53:27;99955.00;;;-145.95;100.00
37648;BME280;23490;53.656;10.076;2023-11-25T04:55:53;99963.25;;;-145.95;100.00
37648;BME280;23490;53.656;10.076;2023-11-25T04:58:18;99946.75;;;-145.95;100.00
37648;BME280;23490;53.656;10.076;2023-11-25T05:00:44;99973.59;;;-145.95;100.00
37648;BME280;23490;53.656;10.076;2023-11-25T05:03:10;99963.25;;;-145.95;100.00
37648;BME280;23490;53.656;10.076;2023-11-25T05:05:36;99983.91;;;-145.95;100.00
37648;BME280;23490;53.656;10.076;2023-11-25T05:08:02;99967.41;;;-145.95;100.00
37648;BME280;23490;53.656;10.076;2023-11-25T05:10:30;99959.13;;;-145.95;100.00
37648;BME280;23490;53.656;10.076;2023-11-25T05:12:55;99950.88;;;-145.95;100.00
37648;BME280;23490;53.656;10.076;2023-11-25T05:15:21;99957.06;;;-145.95;100.00
37648;BME280;23490;53.656;10.076;2023-11-25T05:17:52;99930.22;;;-145.95;100.00
37648;BME280;23490;53.656;10.076;2023-11-25T05:20:18;99948.81;;;-145.95;100.00
37648;BME280;23490;53.656;10.076;2023-11-25T05:22:43;99950.88;;;-145.95;100.00
37648;BME280;23490;53.656;10.076;2023-11-25T05:25:09;99963.25;;;-145.95;100.00
37648;BME280;23490;53.656;10.076;2023-11-25T05:27:41;99924.03;;;-145.95;100.00
37648;BME280;23490;53.656;10.076;2023-11-25T05:30:07;99936.41;;;-145.95;100.00
37648;BME280;23490;53.656;10.076;2023-11-25T05:32:34;99926.09;;;-145.95;100.00
37648;BME280;23490;53.656;10.076;2023-11-25T05:34:59;99950.88;;;-145.95;100.00
37648;BME280;23490;53.656;10.076;2023-11-25T05:37:24;99946.75;;;-145.95;100.00
37648;BME280;23490;53.656;10.076;2023-11-25T05:39:50;99934.34;;;-145.95;100.00
37648;BME280;23490;53.656;10.076;2023-11-25T05:42:16;99959.13;;;-145.95;100.00
37648;BME280;23490;53.656;10.076;2023-11-25T05:44:48;99903.38;;;-145.95;100.00
37648;BME280;23490;53.656;10.076;2023-11-25T05:47:14;99897.16;;;-145.95;100.00
37648;BME280;23490;53.656;10.076;2023-11-25T05:49:40;99913.69;;;-145.95;100.00
37648;BME280;23490;53.656;10.076;2023-11-25T05:52:05;99930.22;;;-145.95;100.00
37648;BME280;23490;53.656;10.076;2023-11-25T05:54:31;99917.81;;;-145.95;100.00
37648;BME280;23490;53.656;10.076;2023-11-25T05:56:57;99909.56;;;-145.95;100.00
37648;BME280;23490;53.656;10.076;2023-11-25T05:59:22;99963.25;;;-145.95;100.00
37648;BME280;23490;53.656;10.076;2023-11-25T06:01:47;99890.97;;;-145.95;100.00
37648;BME280;23490;53.656;10.076;2023-11-25T06:04:13;99917.81;;;-145.95;100.00
37648;BME280;23490;53.656;10.076;2023-11-25T06:06:38;99934.34;;;-145.95;100.00
37648;BME280;23490;53.656;10.076;2023-11-25T06:09:04;99938.47;;;-145.95;100.00
37648;BME280;23490;53.656;10.076;2023-11-25T06:11:30;99905.44;;;-145.95;100.00
37648;BME280;23490;53.656;10.076;2023-11-25T06:13:58;99942.59;;;-145.95;100.00
37648;BME280;23490;53.656;10.076;2023-11-25T06:16:24;99901.31;;;-145.95;100.00
37648;BME280;23490;53.656;10.076;2023-11-25T06:18:54;99934.34;;;-145.95;100.00
37648;BME280;23490;53.656;10.076;2023-11-25T06:21:20;99893.03;;;-145.95;100.00
37648;BME280;23490;53.656;10.076;2023-11-25T06:23:46;99909.56;;;-145.95;100.00
37648;BME280;23490;53.656;10.076;2023-11-25T06:26:12;99934.34;;;-145.95;100.00
37648;BME280;23490;53.656;10.076;2023-11-25T06:28:41;99928.16;;;-145.95;100.00
37648;BME280;23490;53.656;10.076;2023-11-25T06:31:16;99930.22;;;-145.95;100.00
37648;BME280;23490;53.656;10.076;2023-11-25T06:33:46;99913.69;;;-145.95;100.00
37648;BME280;23490;53.656;10.076;2023-11-25T06:36:11;99893.03;;;-145.95;100.00
37648;BME280;23490;53.656;10.076;2023-11-25T06:38:37;99901.31;;;-145.95;100.00
37648;BME280;23490;53.656;10.076;2023-11-25T06:41:02;99946.75;;;-145.95;100.00
37648;BME280;23490;53.656;10.076;2023-11-25T06:43:28;99938.47;;;-145.95;100.00
37648;BME280;23490;53.656;10.076;2023-11-25T06:45:54;99948.81;;;-145.95;100.00
37648;BME280;23490;53.656;10.076;2023-11-25T06:48:20;99959.13;;;-145.95;100.00
37648;BME280;23490;53.656;10.076;2023-11-25T06:50:49;99942.59;;;-145.95;100.00
37648;BME280;23490;53.656;10.076;2023-11-25T06:53:14;99946.75;;;-145.95;100.00
37648;BME280;23490;53.656;10.076;2023-11-25T06:55:39;99893.03;;;-145.95;100.00
37648;BME280;23490;53.656;10.076;2023-11-25T06:58:10;99938.47;;;-145.95;100.00
37648;BME280;23490;53.656;10.076;2023-11-25T07:00:40;99919.88;;;-145.95;100.00
37648;BME280;23490;53.656;10.076;2023-11-25T07:03:06;99897.16;;;-145.95;100.00
37648;BME280;23490;53.656;10.076;2023-11-25T07:05:34;99946.75;;;-145.95;100.00
37648;BME280;23490;53.656;10.076;2023-11-25T07:07:59;99921.94;;;-145.95;100.00
37648;BME280;23490;53.656;10.076;2023-11-25T07:10:25;99893.03;;;-145.95;100.00
37648;BME280;23490;53.656;10.076;2023-11-25T07:12:58;99901.31;;;-145.95;100.00
37648;BME280;23490;53.656;10.076;2023-11-25T07:15:24;99864.13;;;-145.95;100.00
37648;BME280;23490;53.656;10.076;2023-11-25T07:17:49;99959.13;;;-145.95;100.00
37648;BME280;23490;53.656;10.076;2023-11-25T07:20:15;99932.28;;;-145.95;100.00
37648;BME280;23490;53.656;10.076;2023-11-25T07:22:44;99878.56;;;-145.95;100.00
37648;BME280;23490;53.656;10.076;2023-11-25T07:25:10;99934.34;;;-145.95;100.00
37648;BME280;23490;53.656;10.076;2023-11-25T07:27:38;99870.31;;;-145.95;100.00
37648;BME280;23490;53.656;10.076;2023-11-25T07:30:08;99857.94;;;-145.95;100.00
37648;BME280;23490;53.656;10.076;2023-11-25T07:32:35;99897.16;;;-145.95;100.00
37648;BME280;23490;53.656;10.076;2023-11-25T07:35:02;99917.81;;;-145.95;100.00
37648;BME280;23490;53.656;10.076;2023-11-25T07:37:31;99913.69;;;-145.95;100.00
37648;BME280;23490;53.656;10.076;2023-11-25T07:39:57;99909.56;;;-145.95;100.00
37648;BME280;23490;53.656;10.076;2023-11-25T07:42:23;99930.22;;;-145.95;100.00
37648;BME280;23490;53.656;10.076;2023-11-25T07:44:48;99888.91;;;-145.95;100.00
37648;BME280;23490;53.656;10.076;2023-11-25T07:47:14;99901.31;;;-145.95;100.00
37648;BME280;23490;53.656;10.076;2023-11-25T07:49:41;99868.25;;;-145.95;100.00
37648;BME280;23490;53.656;10.076;2023-11-25T07:52:07;99901.31;;;-145.95;100.00
37648;BME280;23490;53.656;10.076;2023-11-25T07:54:32;99882.72;;;-145.95;100.00
37648;BME280;23490;53.656;10.076;2023-11-25T07:56:58;99909.56;;;-145.95;100.00
37648;BME280;23490;53.656;10.076;2023-11-25T07:59:23;99888.91;;;-145.95;100.00
37648;BME280;23490;53.656;10.076;2023-11-25T08:01:49;99880.66;;;-145.95;100.00
37648;BME280;23490;53.656;10.076;2023-11-25T08:04:14;99876.50;;;-145.95;100.00
37648;BME280;23490;53.656;10.076;2023-11-25T08:06:39;99888.91;;;-145.95;100.00
37648;BME280;23490;53.656;10.076;2023-11-25T08:09:06;99880.66;;;-145.95;100.00
37648;BME280;23490;53.656;10.076;2023-11-25T08:11:34;99860.00;;;-145.95;100.00
37648;BME280;23490;53.656;10.076;2023-11-25T08:14:00;99847.59;;;-145.95;100.00
37648;BME280;23490;53.656;10.076;2023-11-25T08:16:26;99847.59;;;-145.95;100.00
37648;BME280;23490;53.656;10.076;2023-11-25T08:18:51;99872.38;;;-145.95;100.00
37648;BME280;23490;53.656;10.076;2023-11-25T08:21:16;99864.13;;;-145.95;100.00
37648;BME280;23490;53.656;10.076;2023-11-25T08:23:42;99872.38;;;-145.95;100.00
37648;BME280;23490;53.656;10.076;2023-11-25T08:26:21;99895.09;;;-145.95;100.00
37648;BME280;23490;53.656;10.076;2023-11-25T08:28:49;99835.19;;;-145.95;100.00
37648;BME280;23490;53.656;10.076;2023-11-25T08:31:14;99868.25;;;-145.95;100.00
37648;BME280;23490;53.656;10.076;2023-11-25T08:33:40;99882.72;;;-145.95;100.00
37648;BME280;23490;53.656;10.076;2023-11-25T08:36:07;99895.09;;;-145.95;100.00
37648;BME280;23490;53.656;10.076;2023-11-25T08:38:32;99853.78;;;-145.95;100.00
37648;BME280;23490;53.656;10.076;2023-11-25T08:40:58;99860.00;;;-145.95;100.00
37648;BME280;23490;53.656;10.076;2023-11-25T08:43:23;99857.94;;;-145.95;100.00
37648;BME280;23490;53.656;10.076;2023-11-25T08:45:49;99897.16;;;-145.95;100.00
37648;BME280;23490;53.656;10.076;2023-11-25T08:48:14;99876.50;;;-145.95;100.00
37648;BME280;23490;53.656;10.076;2023-11-25T08:50:40;99831.06;;;-145.95;100.00
37648;BME280;23490;53.656;10.076;2023-11-25T08:53:06;99855.84;;;-145.95;100.00
37648;BME280;23490;53.656;10.076;2023-11-25T08:55:33;99847.59;;;-145.95;100.00
37648;BME280;23490;53.656;10.076;2023-11-25T08:57:58;99793.91;;;-145.95;100.00
37648;BME280;23490;53.656;10.076;2023-11-25T09:00:24;99843.47;;;-145.95;100.00
37648;BME280;23490;53.656;10.076;2023-11-25T09:02:50;99818.69;;;-145.95;100.00
37648;BME280;23490;53.656;10.076;2023-11-25T09:05:16;99872.38;;;-145.95;100.00
37648;BME280;23490;53.656;10.076;2023-11-25T09:07:50;99798.03;;;-145.95;100.00
37648;BME280;23490;53.656;10.076;2023-11-25T09:10:20;99806.28;;;-145.95;100.00
37648;BME280;23490;53.656;10.076;2023-11-25T09:12:46;99843.47;;;-145.95;100.00
37648;BME280;23490;53.656;10.076;2023-11-25T09:15:11;99806.28;;;-145.95;100.00
37648;BME280;23490;53.656;10.076;2023-11-25T09:17:41;99808.34;;;-145.95;100.00
37648;BME280;23490;53.656;10.076;2023-11-25T09:20:08;99804.22;;;-145.95;100.00
37648;BME280;23490;53.656;10.076;2023-11-25T09:22:40;99812.47;;;-145.95;100.00
37648;BME280;23490;53.656;10.076;2023-11-25T09:25:07;99798.03;;;-145.95;100.00
37648;BME280;23490;53.656;10.076;2023-11-25T09:27:38;99760.84;;;-145.95;100.00
37648;BME280;23490;53.656;10.076;2023-11-25T09:30:05;99826.94;;;-145.95;100.00
37648;BME280;23490;53.656;10.076;2023-11-25T09:32:31;99820.75;;;-145.95;100.00
37648;BME280;23490;53.656;10.076;2023-11-25T09:34:57;99847.59;;;-145.95;100.00
37648;BME280;23490;53.656;10.076;2023-11-25T09:37:23;99812.47;;;-145.95;100.00
37648;BME280;23490;53.656;10.076;2023-11-25T09:39:48;99810.41;;;-145.95;100.00
37648;BME280;23490;53.656;10.076;2023-11-25T09:42:14;99773.25;;;-145.95;100.00
37648;BME280;23490;53.656;10.076;2023-11-25T09:44:40;99777.38;;;-145.95;100.00
37648;BME280;23490;53.656;10.076;2023-11-25T09:47:06;99839.34;;;-145.95;100.00
37648;BME280;23490;53.656;10.076;2023-11-25T09:49:31;99851.72;;;-145.95;100.00
37648;BME280;23490;53.656;10.076;2023-11-25T09:52:00;99798.03;;;-145.95;100.00
37648;BME280;23490;53.656;10.076;2023-11-25T09:54:26;99810.41;;;-145.95;100.00
37648;BME280;23490;53.656;10.076;2023-11-25T09:56:53;99835.19;;;-145.95;100.00
37648;BME280;23490;53.656;10.076;2023-11-25T09:59:18;99795.97;;;-145.95;100.00
37648;BME280;23490;53.656;10.076;2023-11-25T10:01:44;99831.06;;;-145.95;100.00
37648;BME280;23490;53.656;10.076;2023-11-25T10:04:12;99818.69;;;-145.95;100.00
37648;BME280;23490;53.656;10.076;2023-11-25T10:06:40;99818.69;;;-145.95;100.00
37648;BME280;23490;53.656;10.076;2023-11-25T10:09:05;99802.16;;;-145.95;100.00
37648;BME280;23490;53.656;10.076;2023-11-25T10:11:35;99835.19;;;-145.95;100.00
37648;BME280;23490;53.656;10.076;2023-11-25T10:14:01;99810.41;;;-145.95;100.00
37648;BME280;23490;53.656;10.076;2023-11-25T10:16:28;99773.25;;;-145.95;100.00
37648;BME280;23490;53.656;10.076;2023-11-25T10:18:54;99802.16;;;-145.95;100.00
37648;BME280;23490;53.656;10.076;2023-11-25T10:21:21;99773.25;;;-145.95;100.00
37648;BME280;23490;53.656;10.076;2023-11-25T10:23:50;99779.44;;;-145.95;100.00
37648;BME280;23490;53.656;10.076;2023-11-25T10:26:16;99822.81;;;-145.95;100.00
37648;BME280;23490;53.656;10.076;2023-11-25T10:28:46;99775.31;;;-145.95;100.00
37648;BME280;23490;53.656;10.076;2023-11-25T10:31:13;99826.94;;;-145.95;100.00
37648;BME280;23490;53.656;10.076;2023-11-25T10:33:44;99775.31;;;-145.95;100.00
37648;BME280;23490;53.656;10.076;2023-11-25T10:36:09;99789.75;;;-145.95;100.00
37648;BME280;23490;53.656;10.076;2023-11-25T10:38:39;99798.03;;;-145.95;100.00
37648;BME280;23490;53.656;10.076;2023-11-25T10:41:05;99814.56;;;-145.95;100.00
37648;BME280;23490;53.656;10.076;2023-11-25T10:43:31;99789.75;;;-145.95;100.00
37648;BME280;23490;53.656;10.076;2023-11-25T10:46:08;99818.69;;;-145.95;100.00
37648;BME280;23490;53.656;10.076;2023-11-25T10:48:38;99785.63;;;-145.95;100.00
37648;BME280;23490;53.656;10.076;2023-11-25T10:51:07;99781.50;;;-145.95;100.00
37648;BME280;23490;53.656;10.076;2023-11-25T10:53:37;99756.72;;;-145.95;100.00
37648;BME280;23490;53.656;10.076;2023-11-25T10:56:03;99686.50;;;-145.95;100.00
37648;BME280;23490;53.656;10.076;2023-11-25T10:58:34;99616.28;;;-145.95;100.00
37648;BME280;23490;53.656;10.076;2023-11-25T11:01:00;99552.25;;;-145.95;100.00
37648;BME280;23490;53.656;10.076;2023-11-25T11:04:08;99492.34;;;-145.95;100.00
37648;BME280;23490;53.656;10.076;2023-11-25T11:06:43;99529.53;;;-145.95;100.00
37648;BME280;23490;53.656;10.076;2023-11-25T11:09:11;99566.69;;;-145.95;100.00
37648;BME280;23490;53.656;10.076;2023-11-25T11:11:48;99473.75;;;-145.95;100.00
37648;BME280;23490;53.656;10.076;2023-11-25T11:14:15;99595.63;;;-145.95;100.00
37648;BME280;23490;53.656;10.076;2023-11-25T11:17:00;99463.44;;;-145.95;100.00
37648;BME280;23490;53.656;10.076;2023-11-25T11:19:34;99566.69;;;-145.95;100.00
37648;BME280;23490;53.656;10.076;2023-11-25T11:22:04;99595.63;;;-145.95;100.00
37648;BME280;23490;53.656;10.076;2023-11-25T11:24:54;99595.63;;;-145.95;100.00
37648;BME280;23490;53.656;10.076;2023-11-25T11:30:08;99653.44;;;-145.95;100.00
37648;BME280;23490;53.656;10.076;2023-11-25T11:32:37;99616.28;;;-145.95;100.00
37648;BME280;23490;53.656;10.076;2023-11-25T11:35:03;99649.31;;;-145.95;100.00
37648;BME280;23490;53.656;10.076;2023-11-25T11:37:39;99636.94;;;-145.95;100.00
37648;BME280;23490;53.656;10.076;2023-11-25T11:40:12;99636.94;;;-145.95;100.00
37648;BME280;23490;53.656;10.076;2023-11-25T11:42:37;99665.84;;;-145.95;100.00
37648;BME280;23490;53.656;10.076;2023-11-25T11:45:08;99669.97;;;-145.95;100.00
37648;BME280;23490;53.656;10.076;2023-11-25T11:50:28;99678.22;;;-145.95;100.00
37648;BME280;23490;53.656;10.076;2023-11-25T11:55:54;99713.34;;;-145.95;100.00
37648;BME280;23490;53.656;10.076;2023-11-25T11:58:21;99690.63;;;-145.95;100.00
37648;BME280;23490;53.656;10.076;2023-11-25T12:03:31;99688.56;;;-145.95;100.00
37648;BME280;23490;53.656;10.076;2023-11-25T12:05:56;99734.00;;;-145.95;100.00
37648;BME280;23490;53.656;10.076;2023-11-25T12:08:23;99734.00;;;-145.95;100.00
37648;BME280;23490;53.656;10.076;2023-11-25T12:10:49;99707.16;;;-145.95;100.00
37648;BME280;23490;53.656;10.076;2023-11-25T12:13:28;99645.19;;;-145.95;100.00
37648;BME280;23490;53.656;10.076;2023-11-25T12:15:54;99682.38;;;-145.95;100.00
37648;BME280;23490;53.656;10.076;2023-11-25T12:18:25;99692.69;;;-145.95;100.00
37648;BME280;23490;53.656;10.076;2023-11-25T12:20:50;99674.09;;;-145.95;100.00
37648;BME280;23490;53.656;10.076;2023-11-25T12:23:16;99705.09;;;-145.95;100.00
37648;BME280;23490;53.656;10.076;2023-11-25T12:25:42;99690.63;;;-145.95;100.00
37648;BME280;23490;53.656;10.076;2023-11-25T12:28:10;99694.75;;;-145.95;100.00
37648;BME280;23490;53.656;10.076;2023-11-25T12:30:37;99657.56;;;-145.95;100.00